Aérodrome :







RETROUVEZ-NOUS SUR...

 
LOGIN :

S'inscrire | Disclaimer

   EN    FR    IT 

 









Légende :    VFR   VFR Marginal   IFR   IFR Intensif   IFR Très Intensif
Visi : 
Plafond : 
>= 8 km
>= 3000ft
5 à 8 km
1000 à 3000 ft
1500m à 5 km
500 à 1000 ft
800 à 1500m
200 à 500 ft
< 800m
< 200 ft
Symboles :   Orages  Brouillard  Fortes neiges  Fortes précipitations  Vent > 20 kt






- Altitude de l'aérodrome : 26 ft
- Code IATA : CAY


SOCA - Rochambeau

DERNIER METAR :
  • 250730Z AUTO 00000KT 9999 FEW027 24/24 Q1009 TEMPO 3000 SHRA SCT012TCU

METARs EXPIRÉS :
  • 250700Z AUTO 00000KT 9999 FEW024 24/24 Q1009 TEMPO 3000 SHRA SCT012TCU
  • 250630Z AUTO 00000KT 9999 SCT026 SCT032 24/24 Q1009 TEMPO 3000 SHRA SCT012TCU
  • 250600Z AUTO 21002KT 9999 FEW025 24/24 Q1009 TEMPO 3000 SHRA SCT012TCU
  • 250530Z AUTO VRB02KT 9999 SCT027 SCT035 24/24 Q1009 TEMPO 3000 SHRA SCT012TCU
  • 250500Z AUTO VRB01KT 9999 FEW027 24/24 Q1009 TEMPO 3000 SHRA SCT012TCU
  • 250430Z AUTO VRB02KT 9999 FEW025 24/24 Q1010 TEMPO 3000 SHRA SCT012TCU

TAF TAF SOCA
Valide du 25 à 00h jusqu'au 26 à 00h UTC


242200Z 2500/2524 VRB05KT 9999 FEW020
PROB40
TEMPO 2500/2512 3000 SHRA SCT012TCU
FM251400 07010KT 9999 SCT035
PROB30
TEMPO 2515/2520 3000 SHRA FEW010CB SCT020TCU
FM252300 VRB05KT 9999 FEW020
FIR SOOO / Amérique du Sud



MET'MAP, la Météo Aéronautique d'un coup d'oeil ! - Copyright ORBIFLY Décembre 2007 - Disclaimer

ORBIFLY MET'MAP TEAM :

Programmation & Développement : Alexandra Zaïnal
Sur une idée originale de : Baudouin d'Aumeries
Assistance à la programmation : Marc-Olivier Méhu
Soutien technique & logistique : Manuel Goepfert

Contact : metmap@orbifly.com




SOURCES & CREDITS :

   NOAA